createdAt,value
2023-05-22T00:00:29.408Z,1012.24
2023-05-22T00:01:29.592Z,1012.22
2023-05-22T00:02:29.333Z,1012.23
2023-05-22T00:03:29.543Z,1012.23
2023-05-22T00:04:29.609Z,1012.22
2023-05-22T00:05:29.342Z,1012.21
2023-05-22T00:06:29.438Z,1012.19
2023-05-22T00:07:29.608Z,1012.22
2023-05-22T00:08:29.953Z,1012.15
2023-05-22T00:09:29.442Z,1012.20
2023-05-22T00:10:29.621Z,1012.20
2023-05-22T00:11:29.292Z,1012.14
2023-05-22T00:12:29.465Z,1012.18
2023-05-22T00:13:29.125Z,1012.16
2023-05-22T00:14:29.295Z,1012.16
2023-05-22T00:15:27.576Z,1012.17
2023-05-22T00:16:29.296Z,1012.11
2023-05-22T00:17:29.427Z,1012.18
2023-05-22T00:18:29.065Z,1012.17
2023-05-22T00:19:29.380Z,1012.18
2023-05-22T00:20:27.513Z,1012.14
2023-05-22T00:21:29.193Z,1012.15
2023-05-22T00:22:29.367Z,1012.16
2023-05-22T00:23:29.040Z,1012.14
2023-05-22T00:24:29.232Z,1012.16
2023-05-22T00:25:27.460Z,1012.13
2023-05-22T00:26:29.138Z,1012.11
2023-05-22T00:27:29.293Z,1012.09
2023-05-22T00:28:28.972Z,1012.11
2023-05-22T00:29:29.156Z,1012.06
2023-05-22T00:30:28.312Z,1012.06
2023-05-22T00:31:28.995Z,1012.07
2023-05-22T00:32:29.185Z,1012.01
2023-05-22T00:33:29.346Z,1012.06
2023-05-22T00:34:29.039Z,1012.05
2023-05-22T00:35:29.188Z,1012.03
2023-05-22T00:36:28.849Z,1012.04
2023-05-22T00:37:28.998Z,1012.05
2023-05-22T00:38:29.184Z,1012.05
2023-05-22T00:39:28.849Z,1012.05
2023-05-22T00:40:29.028Z,1012.06
2023-05-22T00:41:29.218Z,1012.04
2023-05-22T00:42:28.866Z,1012.06
2023-05-22T00:43:29.026Z,1012.05
2023-05-22T00:44:29.201Z,1011.99
2023-05-22T00:45:28.874Z,1011.99
2023-05-22T00:46:29.092Z,1012.03
2023-05-22T00:47:28.745Z,1012.00
2023-05-22T00:48:28.916Z,1012.04
2023-05-22T00:49:29.066Z,1012.04
2023-05-22T00:50:28.771Z,1012.01
2023-05-22T00:51:28.935Z,1011.98
2023-05-22T00:52:29.112Z,1011.98
2023-05-22T00:53:28.794Z,1011.98
2023-05-22T00:54:29.004Z,1011.98
2023-05-22T00:55:28.654Z,1011.98
2023-05-22T00:56:28.821Z,1011.93
2023-05-22T00:57:29.023Z,1011.97
2023-05-22T00:58:28.681Z,1011.93
2023-05-22T00:59:28.838Z,1011.96
2023-05-22T01:00:28.534Z,1011.92
2023-05-22T01:01:28.755Z,1011.94
2023-05-22T01:02:28.917Z,1011.95
2023-05-22T01:03:28.600Z,1011.93
2023-05-22T01:04:28.709Z,1011.94
2023-05-22T01:05:28.889Z,1011.91
2023-05-22T01:06:28.580Z,1011.92
2023-05-22T01:07:28.742Z,1011.90
2023-05-22T01:08:28.413Z,1011.91
2023-05-22T01:09:28.589Z,1011.91
2023-05-22T01:10:28.796Z,1011.91
2023-05-22T01:11:28.465Z,1011.90
2023-05-22T01:12:28.637Z,1011.92
2023-05-22T01:13:28.842Z,1011.91
2023-05-22T01:14:28.484Z,1011.90
2023-05-22T01:15:28.668Z,1011.90
2023-05-22T01:16:26.835Z,1011.91
2023-05-22T01:17:28.478Z,1011.88
2023-05-22T01:18:28.597Z,1011.88
2023-05-22T01:19:28.316Z,1011.89
2023-05-22T01:20:28.440Z,1011.91
2023-05-22T01:21:26.720Z,1011.91
2023-05-22T01:22:28.640Z,1011.93
2023-05-22T01:23:28.285Z,1011.88
2023-05-22T01:24:28.476Z,1011.84
2023-05-22T01:25:28.633Z,1011.85
2023-05-22T01:26:26.659Z,1011.82
2023-05-22T01:27:28.550Z,1011.85
2023-05-22T01:28:28.232Z,1011.85
2023-05-22T01:29:28.391Z,1011.84
2023-05-22T01:30:28.591Z,1011.83
2023-05-22T01:31:28.235Z,1011.84
2023-05-22T01:32:28.523Z,1011.85
2023-05-22T01:33:28.201Z,1011.79
2023-05-22T01:34:28.338Z,1011.82
2023-05-22T01:35:28.490Z,1011.76
2023-05-22T01:36:28.132Z,1011.81
2023-05-22T01:37:28.311Z,1011.82
2023-05-22T01:38:28.469Z,1011.84
2023-05-22T01:39:28.164Z,1011.85
2023-05-22T01:40:28.333Z,1011.86
2023-05-22T01:41:28.020Z,1011.85
2023-05-22T01:42:28.201Z,1011.86
2023-05-22T01:43:28.348Z,1011.85
2023-05-22T01:44:28.013Z,1011.82
2023-05-22T01:45:28.211Z,1011.87
2023-05-22T01:46:28.415Z,1011.84
2023-05-22T01:47:28.150Z,1011.89
2023-05-22T01:48:28.232Z,1011.87
2023-05-22T01:49:27.895Z,1011.89
2023-05-22T01:50:28.082Z,1011.90
2023-05-22T01:51:28.235Z,1011.88
2023-05-22T01:52:27.916Z,1011.88
2023-05-22T01:53:28.104Z,1011.92
2023-05-22T01:54:28.326Z,1011.93
2023-05-22T01:55:27.962Z,1011.93
2023-05-22T01:56:28.168Z,1011.91
2023-05-22T01:57:27.861Z,1011.87
2023-05-22T01:58:28.007Z,1011.90
2023-05-22T01:59:28.204Z,1011.91
2023-05-22T02:00:27.885Z,1011.90
2023-05-22T02:01:28.072Z,1011.86
2023-05-22T02:02:27.775Z,1011.93
2023-05-22T02:03:28.068Z,1011.89
2023-05-22T02:04:28.069Z,1011.89
2023-05-22T02:05:27.753Z,1011.86
2023-05-22T02:06:27.919Z,1011.94
2023-05-22T02:07:28.081Z,1011.94
2023-05-22T02:08:27.728Z,1011.91
2023-05-22T02:09:27.891Z,1011.96
2023-05-22T02:10:28.053Z,1011.94
2023-05-22T02:11:27.715Z,1011.95
2023-05-22T02:12:27.891Z,1011.92
2023-05-22T02:13:27.579Z,1011.87
2023-05-22T02:14:27.780Z,1011.89
2023-05-22T02:15:27.990Z,1011.90
2023-05-22T02:16:27.622Z,1011.87
2023-05-22T02:17:26.001Z,1011.87
2023-05-22T02:18:27.692Z,1011.85
2023-05-22T02:19:27.946Z,1011.86
2023-05-22T02:20:27.514Z,1011.84
2023-05-22T02:21:27.700Z,1011.84
2023-05-22T02:22:25.936Z,1011.84
2023-05-22T02:23:27.598Z,1011.86
2023-05-22T02:24:27.744Z,1011.88
2023-05-22T02:25:27.442Z,1011.84
2023-05-22T02:26:27.633Z,1011.85
2023-05-22T02:27:26.784Z,1011.83
2023-05-22T02:28:27.458Z,1011.80
2023-05-22T02:29:27.629Z,1011.76
2023-05-22T02:30:27.771Z,1011.78
2023-05-22T02:31:27.478Z,1011.79
2023-05-22T02:32:27.654Z,1011.75
2023-05-22T02:33:27.264Z,1011.77
2023-05-22T02:34:27.458Z,1011.72
2023-05-22T02:35:27.659Z,1011.73
2023-05-22T02:36:27.412Z,1011.77
2023-05-22T02:37:27.548Z,1011.73
2023-05-22T02:38:27.198Z,1011.78
2023-05-22T02:39:27.374Z,1011.76
2023-05-22T02:40:27.540Z,1011.72
2023-05-22T02:41:27.218Z,1011.70
2023-05-22T02:42:27.381Z,1011.77
2023-05-22T02:43:27.571Z,1011.75
2023-05-22T02:44:27.251Z,1011.75
2023-05-22T02:45:27.425Z,1011.79
2023-05-22T02:46:27.647Z,1011.80
2023-05-22T02:47:27.289Z,1011.76
2023-05-22T02:48:27.471Z,1011.78
2023-05-22T02:49:27.122Z,1011.82
2023-05-22T02:50:27.306Z,1011.79
2023-05-22T02:51:27.475Z,1011.81
2023-05-22T02:52:27.158Z,1011.80
2023-05-22T02:53:27.329Z,1011.79
2023-05-22T02:54:27.512Z,1011.77
2023-05-22T02:55:27.179Z,1011.78
2023-05-22T02:56:27.319Z,1011.71
2023-05-22T02:57:27.010Z,1011.69
2023-05-22T02:58:27.188Z,1011.68
2023-05-22T02:59:27.328Z,1011.70
2023-05-22T03:00:27.063Z,1011.70
2023-05-22T03:01:27.233Z,1011.67
2023-05-22T03:02:27.451Z,1011.70
2023-05-22T03:03:26.290Z,1011.67
2023-05-22T03:04:27.323Z,1011.68
2023-05-22T03:05:26.996Z,1011.64
2023-05-22T03:06:27.191Z,1011.67
2023-05-22T03:07:26.862Z,1011.68
2023-05-22T03:08:27.027Z,1011.65
2023-05-22T03:09:27.183Z,1011.69
2023-05-22T03:10:26.821Z,1011.62
2023-05-22T03:11:27.047Z,1011.66
2023-05-22T03:12:27.183Z,1011.69
2023-05-22T03:13:26.872Z,1011.68
2023-05-22T03:14:27.050Z,1011.63
2023-05-22T03:15:27.200Z,1011.62
2023-05-22T03:16:27.102Z,1011.63
2023-05-22T03:17:27.155Z,1011.65
2023-05-22T03:18:27.452Z,1011.60
2023-05-22T03:19:27.106Z,1011.59
2023-05-22T03:20:27.033Z,1011.61
2023-05-22T03:21:26.710Z,1011.58
2023-05-22T03:22:26.890Z,1011.62
2023-05-22T03:23:27.152Z,1011.54
2023-05-22T03:24:26.736Z,1011.58
2023-05-22T03:25:26.915Z,1011.56
2023-05-22T03:26:26.065Z,1011.54
2023-05-22T03:27:26.803Z,1011.62
2023-05-22T03:28:26.946Z,1011.53
2023-05-22T03:29:26.612Z,1011.52
2023-05-22T03:30:26.794Z,1011.59
2023-05-22T03:31:26.978Z,1011.52
2023-05-22T03:32:26.758Z,1011.50
2023-05-22T03:33:26.839Z,1011.44
2023-05-22T03:34:24.980Z,1011.42
2023-05-22T03:35:26.629Z,1011.46
2023-05-22T03:36:26.911Z,1011.45
2023-05-22T03:37:26.489Z,1011.48
2023-05-22T03:38:26.652Z,1011.46
2023-05-22T03:39:25.815Z,1011.46
2023-05-22T03:40:26.498Z,1011.47
2023-05-22T03:41:26.630Z,1011.48
2023-05-22T03:42:27.812Z,1011.46
2023-05-22T03:43:26.475Z,1011.47
2023-05-22T03:44:26.637Z,1011.51
2023-05-22T03:45:26.863Z,1011.53
2023-05-22T03:46:26.735Z,1011.51
2023-05-22T03:47:26.707Z,1011.54
2023-05-22T03:48:26.358Z,1011.55
2023-05-22T03:49:26.496Z,1011.54
2023-05-22T03:50:26.683Z,1011.58
2023-05-22T03:51:26.373Z,1011.54
2023-05-22T03:52:26.522Z,1011.55
2023-05-22T03:53:26.707Z,1011.56
2023-05-22T03:54:26.372Z,1011.53
2023-05-22T03:55:24.702Z,1011.58
2023-05-22T03:56:26.387Z,1011.58
2023-05-22T03:57:26.584Z,1011.54
2023-05-22T03:58:26.229Z,1011.54
2023-05-22T03:59:26.373Z,1011.54
2023-05-22T04:00:35.980Z,1011.55
2023-05-22T04:01:27.236Z,1011.52
2023-05-22T04:02:26.580Z,1011.56
2023-05-22T04:03:26.738Z,1011.52
2023-05-22T04:04:26.237Z,1011.53
2023-05-22T04:05:31.694Z,1011.53
2023-05-22T04:06:26.324Z,1011.54
2023-05-22T04:07:26.484Z,1011.52
2023-05-22T04:08:26.188Z,1011.50
2023-05-22T04:09:26.314Z,1011.49
2023-05-22T04:10:26.501Z,1011.48
2023-05-22T04:11:26.219Z,1011.50
2023-05-22T04:12:26.312Z,1011.48
2023-05-22T04:13:25.981Z,1011.46
2023-05-22T04:14:25.642Z,1011.46
2023-05-22T04:15:26.323Z,1011.38
2023-05-22T04:16:26.015Z,1011.45
2023-05-22T04:17:26.155Z,1011.43
2023-05-22T04:18:26.327Z,1011.42
2023-05-22T04:19:26.019Z,1011.46
2023-05-22T04:20:26.157Z,1011.38
2023-05-22T04:21:24.339Z,1011.41
2023-05-22T04:22:26.032Z,1011.43
2023-05-22T04:23:26.247Z,1011.45
2023-05-22T04:24:26.139Z,1011.44
2023-05-22T04:25:25.837Z,1011.50
2023-05-22T04:26:25.980Z,1011.46
2023-05-22T04:27:26.119Z,1011.51
2023-05-22T04:28:25.815Z,1011.53
2023-05-22T04:29:25.956Z,1011.49
2023-05-22T04:30:26.113Z,1011.53
2023-05-22T04:31:25.859Z,1011.57
2023-05-22T04:32:25.996Z,1011.55
2023-05-22T04:33:26.128Z,1011.56
2023-05-22T04:34:26.060Z,1011.57
2023-05-22T04:35:25.698Z,1011.61
2023-05-22T04:36:25.889Z,1011.57
2023-05-22T04:37:26.060Z,1011.55
2023-05-22T04:38:25.751Z,1011.56
2023-05-22T04:39:25.924Z,1011.55
2023-05-22T04:40:26.105Z,1011.52
2023-05-22T04:41:25.783Z,1011.47
2023-05-22T04:42:25.985Z,1011.50
2023-05-22T04:43:25.658Z,1011.47
2023-05-22T04:44:26.002Z,1011.48
2023-05-22T04:45:26.002Z,1011.51
2023-05-22T04:46:25.708Z,1011.46
2023-05-22T04:47:25.920Z,1011.53
2023-05-22T04:48:25.582Z,1011.48
2023-05-22T04:49:25.748Z,1011.49
2023-05-22T04:50:25.996Z,1011.46
2023-05-22T04:51:25.603Z,1011.46
2023-05-22T04:52:23.946Z,1011.51
2023-05-22T04:53:25.624Z,1011.50
2023-05-22T04:54:25.806Z,1011.51
2023-05-22T04:55:25.528Z,1011.47
2023-05-22T04:56:35.388Z,1011.49
2023-05-22T04:57:26.824Z,1011.49
2023-05-22T04:58:25.517Z,1011.49
2023-05-22T04:59:25.686Z,1011.49
2023-05-22T05:00:25.370Z,1011.48
2023-05-22T05:01:25.634Z,1011.51
2023-05-22T05:02:25.746Z,1011.49
2023-05-22T05:03:25.398Z,1011.53
2023-05-22T05:04:25.580Z,1011.52
2023-05-22T05:05:25.751Z,1011.53
2023-05-22T05:06:25.418Z,1011.53
2023-05-22T05:07:25.597Z,1011.53
2023-05-22T05:08:25.260Z,1011.52
2023-05-22T05:09:25.409Z,1011.49
2023-05-22T05:10:25.608Z,1011.51
2023-05-22T05:11:25.286Z,1011.50
2023-05-22T05:12:25.466Z,1011.51
2023-05-22T05:13:25.645Z,1011.53
2023-05-22T05:14:25.324Z,1011.53
2023-05-22T05:15:25.487Z,1011.49
2023-05-22T05:16:25.217Z,1011.48
2023-05-22T05:17:25.360Z,1011.44
2023-05-22T05:18:25.517Z,1011.41
2023-05-22T05:19:25.275Z,1011.44
2023-05-22T05:20:25.359Z,1011.47
2023-05-22T05:21:25.552Z,1011.42
2023-05-22T05:22:25.214Z,1011.45
2023-05-22T05:23:25.384Z,1011.45
2023-05-22T05:24:25.059Z,1011.47
2023-05-22T05:25:25.239Z,1011.50
2023-05-22T05:26:25.423Z,1011.45
2023-05-22T05:27:25.120Z,1011.52
2023-05-22T05:28:23.453Z,1011.49
2023-05-22T05:29:25.141Z,1011.50
2023-05-22T05:30:25.284Z,1011.48
2023-05-22T05:31:25.023Z,1011.50
2023-05-22T05:32:25.184Z,1011.52
2023-05-22T05:33:23.403Z,1011.47
2023-05-22T05:34:25.078Z,1011.55
2023-05-22T05:35:25.280Z,1011.48
2023-05-22T05:36:24.938Z,1011.51
2023-05-22T05:37:25.128Z,1011.48
2023-05-22T05:38:24.281Z,1011.50
2023-05-22T05:39:24.983Z,1011.52
2023-05-22T05:40:25.136Z,1011.53
2023-05-22T05:41:24.821Z,1011.58
2023-05-22T05:42:25.018Z,1011.55
2023-05-22T05:43:25.228Z,1011.55
2023-05-22T05:44:24.842Z,1011.59
2023-05-22T05:45:25.079Z,1011.57
2023-05-22T05:46:25.273Z,1011.61
2023-05-22T05:47:24.922Z,1011.62
2023-05-22T05:48:25.023Z,1011.63
2023-05-22T05:49:24.172Z,1011.64
2023-05-22T05:50:24.868Z,1011.61
2023-05-22T05:51:25.013Z,1011.65
2023-05-22T05:52:24.155Z,1011.67
2023-05-22T05:53:24.830Z,1011.65
2023-05-22T05:54:24.959Z,1011.67
2023-05-22T05:55:24.622Z,1011.63
2023-05-22T05:56:24.790Z,1011.66
2023-05-22T05:57:24.956Z,1011.65
2023-05-22T05:58:24.613Z,1011.60
2023-05-22T05:59:24.789Z,1011.63
2023-05-22T06:00:24.964Z,1011.62
2023-05-22T06:01:24.658Z,1011.52
2023-05-22T06:02:24.935Z,1011.55
2023-05-22T06:03:25.030Z,1011.53
2023-05-22T06:04:24.626Z,1011.54
2023-05-22T06:05:24.819Z,1011.54
2023-05-22T06:06:24.948Z,1011.55
2023-05-22T06:07:24.654Z,1011.58
2023-05-22T06:08:24.823Z,1011.58
2023-05-22T06:09:24.556Z,1011.51
2023-05-22T06:10:24.745Z,1011.51
2023-05-22T06:11:24.925Z,1011.51
2023-05-22T06:12:24.566Z,1011.51
2023-05-22T06:13:24.758Z,1011.56
2023-05-22T06:14:22.852Z,1011.51
2023-05-22T06:15:24.508Z,1011.54
2023-05-22T06:16:24.795Z,1011.55
2023-05-22T06:17:24.483Z,1011.57
2023-05-22T06:18:25.649Z,1011.54
2023-05-22T06:19:22.868Z,1011.51
2023-05-22T06:20:24.470Z,1011.51
2023-05-22T06:21:24.654Z,1011.46
2023-05-22T06:22:24.291Z,1011.46
2023-05-22T06:23:24.465Z,1011.41
2023-05-22T06:24:23.621Z,1011.48
2023-05-22T06:25:24.300Z,1011.48
2023-05-22T06:26:24.488Z,1011.49
2023-05-22T06:27:24.682Z,1011.52
2023-05-22T06:28:24.351Z,1011.47
2023-05-22T06:29:24.536Z,1011.45
2023-05-22T06:30:38.960Z,1011.43
2023-05-22T06:31:25.341Z,1011.47
2023-05-22T06:32:24.639Z,1011.46
2023-05-22T06:33:24.243Z,1011.46
2023-05-22T06:34:24.410Z,1011.44
2023-05-22T06:35:24.560Z,1011.47
2023-05-22T06:36:24.238Z,1011.50
2023-05-22T06:37:24.405Z,1011.50
2023-05-22T06:38:24.084Z,1011.47
2023-05-22T06:39:24.230Z,1011.49
2023-05-22T06:40:24.390Z,1011.52
2023-05-22T06:41:24.065Z,1011.51
2023-05-22T06:42:24.247Z,1011.53
2023-05-22T06:43:24.392Z,1011.50
2023-05-22T06:44:24.066Z,1011.50
2023-05-22T06:45:24.233Z,1011.41
2023-05-22T06:46:25.973Z,1011.45
2023-05-22T06:47:24.101Z,1011.48
2023-05-22T06:48:24.328Z,1011.42
2023-05-22T06:49:23.980Z,1011.44
2023-05-22T06:50:24.152Z,1011.43
2023-05-22T06:51:24.381Z,1011.40
2023-05-22T06:52:24.025Z,1011.46
2023-05-22T06:53:24.208Z,1011.45
2023-05-22T06:54:23.869Z,1011.49
2023-05-22T06:55:22.340Z,1011.43
2023-05-22T06:56:24.016Z,1011.42
2023-05-22T06:57:24.183Z,1011.44
2023-05-22T06:58:23.863Z,1011.44
2023-05-22T06:59:24.030Z,1011.42
2023-05-22T07:00:22.270Z,1011.45
2023-05-22T07:01:23.997Z,1011.42
2023-05-22T07:02:24.091Z,1011.42
2023-05-22T07:03:23.719Z,1011.40
2023-05-22T07:04:23.868Z,1011.40
2023-05-22T07:05:24.090Z,1011.45
2023-05-22T07:06:23.752Z,1011.47
2023-05-22T07:07:23.933Z,1011.47
2023-05-22T07:08:24.073Z,1011.40
2023-05-22T07:09:23.747Z,1011.45
2023-05-22T07:10:23.955Z,1011.45
2023-05-22T07:11:24.085Z,1011.45
2023-05-22T07:12:23.776Z,1011.43
2023-05-22T07:13:23.962Z,1011.48
2023-05-22T07:14:23.649Z,1011.41
2023-05-22T07:15:23.903Z,1011.41
2023-05-22T07:16:23.590Z,1011.35
2023-05-22T07:17:23.754Z,1011.41
2023-05-22T07:18:23.895Z,1011.39
2023-05-22T07:19:23.603Z,1011.40
2023-05-22T07:20:23.760Z,1011.39
2023-05-22T07:21:23.968Z,1011.33
2023-05-22T07:22:23.601Z,1011.38
2023-05-22T07:23:25.573Z,1011.36
2023-05-22T07:24:23.937Z,1011.34
2023-05-22T07:25:23.656Z,1011.37
2023-05-22T07:26:23.912Z,1011.37
2023-05-22T07:27:23.596Z,1011.35
2023-05-22T07:28:23.785Z,1011.33
2023-05-22T07:29:23.516Z,1011.35
2023-05-22T07:30:23.617Z,1011.28
2023-05-22T07:31:21.894Z,1011.33
2023-05-22T07:32:23.528Z,1011.35
2023-05-22T07:33:23.721Z,1011.34
2023-05-22T07:34:23.406Z,1011.35
2023-05-22T07:35:23.561Z,1011.32
2023-05-22T07:36:23.739Z,1011.24
2023-05-22T07:37:23.403Z,1011.34
2023-05-22T07:38:23.604Z,1011.33
2023-05-22T07:39:23.275Z,1011.34
2023-05-22T07:40:24.503Z,1011.35
2023-05-22T07:41:23.651Z,1011.37
2023-05-22T07:42:23.328Z,1011.36
2023-05-22T07:43:23.502Z,1011.33
2023-05-22T07:44:23.725Z,1011.33
2023-05-22T07:45:23.392Z,1011.30
2023-05-22T07:46:23.601Z,1011.30
2023-05-22T07:47:23.276Z,1011.35
2023-05-22T07:48:23.457Z,1011.32
2023-05-22T07:49:23.123Z,1011.34
2023-05-22T07:50:23.265Z,1011.34
2023-05-22T07:51:23.439Z,1011.31
2023-05-22T07:52:23.121Z,1011.28
2023-05-22T07:53:23.285Z,1011.28
2023-05-22T07:54:23.440Z,1011.31
2023-05-22T07:55:23.106Z,1011.30
2023-05-22T07:56:23.291Z,1011.32
2023-05-22T07:57:23.476Z,1011.33
2023-05-22T07:58:23.129Z,1011.27
2023-05-22T07:59:24.385Z,1011.29
2023-05-22T08:00:23.044Z,1011.29
2023-05-22T08:01:23.207Z,1011.27
2023-05-22T08:02:23.410Z,1011.27
2023-05-22T08:03:24.220Z,1011.29
2023-05-22T08:04:23.316Z,1011.23
2023-05-22T08:05:23.451Z,1011.26
2023-05-22T08:06:23.054Z,1011.17
2023-05-22T08:07:23.220Z,1011.21
2023-05-22T08:08:22.886Z,1011.23
2023-05-22T08:09:23.042Z,1011.20
2023-05-22T08:10:23.231Z,1011.22
2023-05-22T08:11:22.886Z,1011.22
2023-05-22T08:12:23.062Z,1011.25
2023-05-22T08:13:23.249Z,1011.19
2023-05-22T08:14:22.924Z,1011.22
2023-05-22T08:15:23.155Z,1011.23
2023-05-22T08:16:22.948Z,1011.19
2023-05-22T08:17:23.024Z,1011.20
2023-05-22T08:18:23.137Z,1011.17
2023-05-22T08:19:22.940Z,1011.17
2023-05-22T08:20:23.035Z,1011.21
2023-05-22T08:21:23.135Z,1011.23
2023-05-22T08:22:22.840Z,1011.19
2023-05-22T08:23:23.045Z,1011.19
2023-05-22T08:24:22.673Z,1011.20
2023-05-22T08:25:22.852Z,1011.14
2023-05-22T08:26:23.029Z,1011.20
2023-05-22T08:27:22.705Z,1011.23
2023-05-22T08:28:22.884Z,1011.18
2023-05-22T08:29:24.062Z,1011.14
2023-05-22T08:30:22.753Z,1011.16
2023-05-22T08:31:22.964Z,1011.13
2023-05-22T08:32:22.654Z,1011.13
2023-05-22T08:33:22.788Z,1011.13
2023-05-22T08:34:22.942Z,1011.06
2023-05-22T08:35:22.615Z,1011.13
2023-05-22T08:36:22.756Z,1011.10
2023-05-22T08:37:22.945Z,1011.13
2023-05-22T08:38:22.612Z,1011.08
2023-05-22T08:39:22.794Z,1011.10
2023-05-22T08:40:22.471Z,1011.04
2023-05-22T08:41:22.642Z,1011.10
2023-05-22T08:42:22.823Z,1011.05
2023-05-22T08:43:22.509Z,1011.00
2023-05-22T08:44:22.657Z,1010.99
2023-05-22T08:45:22.886Z,1011.03
2023-05-22T08:46:22.523Z,1011.01
2023-05-22T08:47:22.673Z,1011.03
2023-05-22T08:48:22.834Z,1011.02
2023-05-22T08:49:23.947Z,1011.02
2023-05-22T08:50:22.664Z,1010.98
2023-05-22T08:51:22.351Z,1010.98
2023-05-22T08:52:22.580Z,1010.99
2023-05-22T08:53:22.720Z,1010.96
2023-05-22T08:54:22.385Z,1010.97
2023-05-22T08:55:22.540Z,1010.94
2023-05-22T08:56:22.769Z,1010.98
2023-05-22T08:57:22.349Z,1010.96
2023-05-22T08:58:22.527Z,1010.91
2023-05-22T08:59:22.713Z,1010.88
2023-05-22T09:00:22.340Z,1010.89
2023-05-22T09:01:22.590Z,1010.89
2023-05-22T09:02:22.276Z,1010.89
2023-05-22T09:03:22.423Z,1010.86
2023-05-22T09:04:22.529Z,1010.93
2023-05-22T09:05:22.201Z,1010.83
2023-05-22T09:06:22.375Z,1010.79
2023-05-22T09:07:22.560Z,1010.84
2023-05-22T09:08:22.235Z,1010.79
2023-05-22T09:09:22.432Z,1010.83
2023-05-22T09:10:22.072Z,1010.79
2023-05-22T09:11:22.257Z,1010.80
2023-05-22T09:12:22.429Z,1010.77
2023-05-22T09:13:22.096Z,1010.80
2023-05-22T09:14:22.296Z,1010.76
2023-05-22T09:15:22.440Z,1010.71
2023-05-22T09:16:22.189Z,1010.76
2023-05-22T09:17:22.315Z,1010.74
2023-05-22T09:18:22.084Z,1010.70
2023-05-22T09:19:22.212Z,1010.72
2023-05-22T09:20:22.528Z,1010.73
2023-05-22T09:21:29.734Z,1010.69
2023-05-22T09:22:24.389Z,1010.64
2023-05-22T09:23:21.913Z,1010.68
2023-05-22T09:24:22.067Z,1010.66
2023-05-22T09:25:22.252Z,1010.70
2023-05-22T09:26:21.976Z,1010.69
2023-05-22T09:27:22.150Z,1010.68
2023-05-22T09:28:21.322Z,1010.68
2023-05-22T09:29:21.974Z,1010.59
2023-05-22T09:30:22.247Z,1010.66
2023-05-22T09:31:21.873Z,1010.56
2023-05-22T09:32:22.219Z,1010.59
2023-05-22T09:33:22.192Z,1010.57
2023-05-22T09:34:21.853Z,1010.57
2023-05-22T09:35:20.239Z,1010.54
2023-05-22T09:36:21.931Z,1010.50
2023-05-22T09:37:22.108Z,1010.52
2023-05-22T09:38:21.781Z,1010.51
2023-05-22T09:39:21.955Z,1010.53
2023-05-22T09:40:20.194Z,1010.46
2023-05-22T09:41:21.819Z,1010.55
2023-05-22T09:42:22.013Z,1010.47
2023-05-22T09:43:21.661Z,1010.42
2023-05-22T09:44:21.850Z,1010.48
2023-05-22T09:45:22.054Z,1010.45
2023-05-22T09:46:21.754Z,1010.47
2023-05-22T09:47:21.905Z,1010.47
2023-05-22T09:48:22.114Z,1010.50
2023-05-22T09:49:21.751Z,1010.48
2023-05-22T09:50:22.013Z,1010.47
2023-05-22T09:51:21.597Z,1010.45
2023-05-22T09:52:21.772Z,1010.49
2023-05-22T09:53:21.956Z,1010.48
2023-05-22T09:54:21.685Z,1010.50
2023-05-22T09:55:21.771Z,1010.46
2023-05-22T09:56:34.834Z,1010.45
2023-05-22T09:57:22.602Z,1010.44
2023-05-22T09:58:21.790Z,1010.39
2023-05-22T09:59:21.437Z,1010.37
2023-05-22T10:00:21.640Z,1010.43
2023-05-22T10:01:21.809Z,1010.39
2023-05-22T10:02:21.530Z,1010.42
2023-05-22T10:03:21.629Z,1010.41
2023-05-22T10:04:21.854Z,1010.47
2023-05-22T10:05:26.913Z,1010.40
2023-05-22T10:06:19.845Z,1010.44
2023-05-22T10:07:21.500Z,1010.41
2023-05-22T10:08:21.669Z,1010.48
2023-05-22T10:09:21.346Z,1010.44
2023-05-22T10:10:21.566Z,1010.46
2023-05-22T10:11:19.780Z,1010.46
2023-05-22T10:12:21.450Z,1010.35
2023-05-22T10:13:21.619Z,1010.34
2023-05-22T10:14:21.299Z,1010.36
2023-05-22T10:15:21.486Z,1010.37
2023-05-22T10:16:21.642Z,1010.36
2023-05-22T10:17:21.386Z,1010.36
2023-05-22T10:18:21.504Z,1010.35
2023-05-22T10:19:21.190Z,1010.38
2023-05-22T10:20:21.544Z,1010.31
2023-05-22T10:21:21.581Z,1010.30
2023-05-22T10:22:21.255Z,1010.17
2023-05-22T10:23:21.455Z,1010.23
2023-05-22T10:24:21.136Z,1010.26
2023-05-22T10:25:21.287Z,1010.26
2023-05-22T10:26:21.522Z,1010.21
2023-05-22T10:27:21.172Z,1010.18
2023-05-22T10:28:21.326Z,1010.18
2023-05-22T10:29:21.499Z,1010.18
2023-05-22T10:30:22.185Z,1010.19
2023-05-22T10:31:21.344Z,1010.21
2023-05-22T10:32:19.501Z,1010.21
2023-05-22T10:33:21.395Z,1010.20
2023-05-22T10:34:21.367Z,1010.18
2023-05-22T10:35:21.025Z,1010.22
2023-05-22T10:36:21.229Z,1010.18
2023-05-22T10:37:20.788Z,1010.15
2023-05-22T10:38:21.101Z,1010.15
2023-05-22T10:39:21.290Z,1010.09
2023-05-22T10:40:21.022Z,1010.15
2023-05-22T10:41:21.100Z,1010.12
2023-05-22T10:42:19.430Z,1010.12
2023-05-22T10:43:21.075Z,1010.06
2023-05-22T10:44:21.244Z,1010.08
2023-05-22T10:45:20.898Z,1010.11
2023-05-22T10:46:21.147Z,1010.07
2023-05-22T10:47:21.375Z,1010.06
2023-05-22T10:48:20.974Z,1010.04
2023-05-22T10:49:21.088Z,1010.02
2023-05-22T10:50:21.331Z,1010.02
2023-05-22T10:51:21.067Z,1010.03
2023-05-22T10:52:21.151Z,1010.03
2023-05-22T10:53:20.832Z,1010.00
2023-05-22T10:54:21.037Z,1009.99
2023-05-22T10:55:21.225Z,1010.01
2023-05-22T10:56:22.918Z,1009.98
2023-05-22T10:57:21.103Z,1009.94
2023-05-22T10:58:20.801Z,1009.92
2023-05-22T10:59:20.933Z,1009.91
2023-05-22T11:00:21.094Z,1009.89
2023-05-22T11:01:20.775Z,1009.96
2023-05-22T11:02:21.018Z,1009.95
2023-05-22T11:03:21.112Z,1009.99
2023-05-22T11:04:20.836Z,1009.92
2023-05-22T11:05:22.009Z,1009.95
2023-05-22T11:06:20.656Z,1009.99
2023-05-22T11:07:20.803Z,1009.92
2023-05-22T11:08:20.980Z,1009.96
2023-05-22T11:09:20.681Z,1009.90
2023-05-22T11:10:20.873Z,1009.90
2023-05-22T11:11:20.529Z,1010.00
2023-05-22T11:12:20.915Z,1009.88
2023-05-22T11:13:20.903Z,1009.85
2023-05-22T11:14:20.577Z,1009.91
2023-05-22T11:15:20.757Z,1009.88
2023-05-22T11:16:20.983Z,1009.87
2023-05-22T11:17:20.608Z,1009.90
2023-05-22T11:18:18.987Z,1009.87
2023-05-22T11:19:23.733Z,1009.85
2023-05-22T11:20:20.922Z,1009.86
2023-05-22T11:21:20.585Z,1009.80
2023-05-22T11:22:20.832Z,1009.78
2023-05-22T11:23:20.448Z,1009.83
2023-05-22T11:24:20.607Z,1009.82
2023-05-22T11:25:20.785Z,1009.81
2023-05-22T11:26:20.476Z,1009.79
2023-05-22T11:27:20.607Z,1009.80
2023-05-22T11:28:20.794Z,1009.79
2023-05-22T11:29:20.463Z,1009.78
2023-05-22T11:30:20.671Z,1009.79
2023-05-22T11:31:20.439Z,1009.70
2023-05-22T11:32:20.542Z,1009.72
2023-05-22T11:33:20.768Z,1009.78
2023-05-22T11:34:20.396Z,1009.77
2023-05-22T11:35:20.577Z,1009.75
2023-05-22T11:36:20.267Z,1009.75
2023-05-22T11:37:20.488Z,1009.78
2023-05-22T11:38:20.619Z,1009.77
2023-05-22T11:39:20.306Z,1009.74
2023-05-22T11:40:20.487Z,1009.72
2023-05-22T11:41:20.136Z,1009.73
2023-05-22T11:42:20.352Z,1009.68
2023-05-22T11:43:20.489Z,1009.76
2023-05-22T11:44:20.163Z,1009.73
2023-05-22T11:45:20.345Z,1009.70
2023-05-22T11:46:20.564Z,1009.69
2023-05-22T11:47:20.175Z,1009.66
2023-05-22T11:48:20.379Z,1009.73
2023-05-22T11:49:20.049Z,1009.70
2023-05-22T11:50:33.480Z,1009.66
2023-05-22T11:51:21.442Z,1009.63
2023-05-22T11:52:20.099Z,1009.67
2023-05-22T11:53:20.289Z,1009.70
2023-05-22T11:54:20.459Z,1009.63
2023-05-22T11:55:20.131Z,1009.63
2023-05-22T11:56:20.320Z,1009.61
2023-05-22T11:57:19.980Z,1009.61
2023-05-22T11:58:20.164Z,1009.54
2023-05-22T11:59:20.419Z,1009.60
2023-05-22T12:00:20.146Z,1009.63
2023-05-22T12:01:20.242Z,1009.55
2023-05-22T12:02:19.898Z,1009.61
2023-05-22T12:03:20.117Z,1009.54
2023-05-22T12:04:20.276Z,1009.58
2023-05-22T12:05:19.872Z,1009.48